sensor_id;sensor_type;location;lat;lon;timestamp;temperature;humidity
74513;DHT22;62992;52.052;8.550;2023-08-06T00:01:16;14.20;99.90
74513;DHT22;62992;52.052;8.550;2023-08-06T00:04:03;14.20;99.90
74513;DHT22;62992;52.052;8.550;2023-08-06T00:06:47;14.20;99.90
74513;DHT22;62992;52.052;8.550;2023-08-06T00:09:31;14.10;99.90
74513;DHT22;62992;52.052;8.550;2023-08-06T00:12:15;14.20;99.90
74513;DHT22;62992;52.052;8.550;2023-08-06T00:14:59;14.10;99.90
74513;DHT22;62992;52.052;8.550;2023-08-06T00:17:44;14.10;99.90
74513;DHT22;62992;52.052;8.550;2023-08-06T00:20:28;14.00;99.90
74513;DHT22;62992;52.052;8.550;2023-08-06T00:23:12;14.00;99.90
74513;DHT22;62992;52.052;8.550;2023-08-06T00:25:56;14.10;99.90
74513;DHT22;62992;52.052;8.550;2023-08-06T00:28:40;14.00;99.90
74513;DHT22;62992;52.052;8.550;2023-08-06T00:31:24;14.00;99.90
74513;DHT22;62992;52.052;8.550;2023-08-06T00:34:09;14.00;99.90
74513;DHT22;62992;52.052;8.550;2023-08-06T00:36:53;14.10;99.90
74513;DHT22;62992;52.052;8.550;2023-08-06T00:39:37;14.10;99.90
74513;DHT22;62992;52.052;8.550;2023-08-06T00:42:22;14.10;99.90
74513;DHT22;62992;52.052;8.550;2023-08-06T00:45:06;14.10;99.90
74513;DHT22;62992;52.052;8.550;2023-08-06T00:47:50;14.10;99.90
74513;DHT22;62992;52.052;8.550;2023-08-06T00:50:34;14.10;99.90
74513;DHT22;62992;52.052;8.550;2023-08-06T00:53:19;14.00;99.90
74513;DHT22;62992;52.052;8.550;2023-08-06T00:56:03;14.10;99.90
74513;DHT22;62992;52.052;8.550;2023-08-06T00:58:47;14.10;99.90
74513;DHT22;62992;52.052;8.550;2023-08-06T01:01:31;14.10;99.90
74513;DHT22;62992;52.052;8.550;2023-08-06T01:04:16;14.10;99.90
74513;DHT22;62992;52.052;8.550;2023-08-06T01:09:54;14.10;99.90
74513;DHT22;62992;52.052;8.550;2023-08-06T01:12:45;14.10;99.90
74513;DHT22;62992;52.052;8.550;2023-08-06T01:15:33;14.00;99.90
74513;DHT22;62992;52.052;8.550;2023-08-06T01:18:18;14.10;99.90
74513;DHT22;62992;52.052;8.550;2023-08-06T01:21:02;14.10;99.90
74513;DHT22;62992;52.052;8.550;2023-08-06T01:23:47;14.10;99.90
74513;DHT22;62992;52.052;8.550;2023-08-06T01:29:35;14.00;99.90
74513;DHT22;62992;52.052;8.550;2023-08-06T01:32:20;14.10;99.90
74513;DHT22;62992;52.052;8.550;2023-08-06T01:35:05;14.10;99.90
74513;DHT22;62992;52.052;8.550;2023-08-06T01:37:49;14.10;99.90
74513;DHT22;62992;52.052;8.550;2023-08-06T01:40:34;14.10;99.90
74513;DHT22;62992;52.052;8.550;2023-08-06T01:43:18;14.10;99.90
74513;DHT22;62992;52.052;8.550;2023-08-06T01:46:03;14.10;99.90
74513;DHT22;62992;52.052;8.550;2023-08-06T01:48:47;14.20;99.90
74513;DHT22;62992;52.052;8.550;2023-08-06T01:51:31;14.20;99.90
74513;DHT22;62992;52.052;8.550;2023-08-06T01:54:15;14.10;99.90
74513;DHT22;62992;52.052;8.550;2023-08-06T01:56:59;14.10;99.90
74513;DHT22;62992;52.052;8.550;2023-08-06T01:59:44;14.10;99.90
74513;DHT22;62992;52.052;8.550;2023-08-06T02:02:28;14.10;99.90
74513;DHT22;62992;52.052;8.550;2023-08-06T02:05:12;14.20;99.90
74513;DHT22;62992;52.052;8.550;2023-08-06T02:07:56;14.20;99.90
74513;DHT22;62992;52.052;8.550;2023-08-06T02:10:40;14.10;99.90
74513;DHT22;62992;52.052;8.550;2023-08-06T02:13:25;14.20;99.90
74513;DHT22;62992;52.052;8.550;2023-08-06T02:16:09;14.10;99.90
74513;DHT22;62992;52.052;8.550;2023-08-06T02:18:54;14.10;99.90
74513;DHT22;62992;52.052;8.550;2023-08-06T02:21:38;14.10;99.90
74513;DHT22;62992;52.052;8.550;2023-08-06T02:24:22;14.20;99.90
74513;DHT22;62992;52.052;8.550;2023-08-06T02:27:06;14.10;99.90
74513;DHT22;62992;52.052;8.550;2023-08-06T02:29:50;14.20;99.90
74513;DHT22;62992;52.052;8.550;2023-08-06T02:32:34;14.10;99.90
74513;DHT22;62992;52.052;8.550;2023-08-06T02:35:19;14.00;99.90
74513;DHT22;62992;52.052;8.550;2023-08-06T02:38:03;14.00;99.90
74513;DHT22;62992;52.052;8.550;2023-08-06T02:40:47;13.90;99.90
74513;DHT22;62992;52.052;8.550;2023-08-06T02:43:32;13.90;99.90
74513;DHT22;62992;52.052;8.550;2023-08-06T02:46:16;13.80;99.90
74513;DHT22;62992;52.052;8.550;2023-08-06T02:49:00;13.90;99.90
74513;DHT22;62992;52.052;8.550;2023-08-06T02:51:45;13.80;99.90
74513;DHT22;62992;52.052;8.550;2023-08-06T02:54:29;13.70;99.90
74513;DHT22;62992;52.052;8.550;2023-08-06T02:57:13;13.70;99.90
74513;DHT22;62992;52.052;8.550;2023-08-06T02:59:57;13.70;99.90
74513;DHT22;62992;52.052;8.550;2023-08-06T03:02:41;13.70;99.90
74513;DHT22;62992;52.052;8.550;2023-08-06T03:05:25;13.70;99.90
74513;DHT22;62992;52.052;8.550;2023-08-06T03:08:09;13.60;99.90
74513;DHT22;62992;52.052;8.550;2023-08-06T03:10:54;13.60;99.90
74513;DHT22;62992;52.052;8.550;2023-08-06T03:13:38;13.60;99.90
74513;DHT22;62992;52.052;8.550;2023-08-06T03:16:22;13.60;99.90
74513;DHT22;62992;52.052;8.550;2023-08-06T03:19:06;13.50;99.90
74513;DHT22;62992;52.052;8.550;2023-08-06T03:21:50;13.50;99.90
74513;DHT22;62992;52.052;8.550;2023-08-06T03:24:35;13.60;99.90
74513;DHT22;62992;52.052;8.550;2023-08-06T03:27:19;13.50;99.90
74513;DHT22;62992;52.052;8.550;2023-08-06T03:30:03;13.40;99.90
74513;DHT22;62992;52.052;8.550;2023-08-06T03:32:47;13.40;99.90
74513;DHT22;62992;52.052;8.550;2023-08-06T03:35:31;13.40;99.90
74513;DHT22;62992;52.052;8.550;2023-08-06T03:38:15;13.40;99.90
74513;DHT22;62992;52.052;8.550;2023-08-06T03:41:00;13.40;99.90
74513;DHT22;62992;52.052;8.550;2023-08-06T03:43:44;13.40;99.90
74513;DHT22;62992;52.052;8.550;2023-08-06T03:46:28;13.40;99.90
74513;DHT22;62992;52.052;8.550;2023-08-06T03:49:12;13.40;99.90
74513;DHT22;62992;52.052;8.550;2023-08-06T03:51:56;13.40;99.90
74513;DHT22;62992;52.052;8.550;2023-08-06T03:54:40;13.40;99.90
74513;DHT22;62992;52.052;8.550;2023-08-06T03:57:27;13.30;99.90
74513;DHT22;62992;52.052;8.550;2023-08-06T04:00:11;13.30;99.90
74513;DHT22;62992;52.052;8.550;2023-08-06T04:02:56;13.40;99.90
74513;DHT22;62992;52.052;8.550;2023-08-06T04:05:40;13.30;99.90
74513;DHT22;62992;52.052;8.550;2023-08-06T04:08:24;13.30;99.90
74513;DHT22;62992;52.052;8.550;2023-08-06T04:11:08;13.20;99.90
74513;DHT22;62992;52.052;8.550;2023-08-06T04:13:53;13.20;99.90
74513;DHT22;62992;52.052;8.550;2023-08-06T04:16:38;13.20;99.90
74513;DHT22;62992;52.052;8.550;2023-08-06T04:19:22;13.30;99.90
74513;DHT22;62992;52.052;8.550;2023-08-06T04:22:06;13.30;99.90
74513;DHT22;62992;52.052;8.550;2023-08-06T04:24:51;13.30;99.90
74513;DHT22;62992;52.052;8.550;2023-08-06T04:27:35;13.40;99.90
74513;DHT22;62992;52.052;8.550;2023-08-06T04:30:20;13.40;99.90
74513;DHT22;62992;52.052;8.550;2023-08-06T04:33:05;13.50;99.90
74513;DHT22;62992;52.052;8.550;2023-08-06T04:35:53;13.60;99.90
74513;DHT22;62992;52.052;8.550;2023-08-06T04:38:37;13.60;99.90
74513;DHT22;62992;52.052;8.550;2023-08-06T04:41:22;13.60;99.90
74513;DHT22;62992;52.052;8.550;2023-08-06T04:44:06;13.60;99.90
74513;DHT22;62992;52.052;8.550;2023-08-06T04:46:50;13.50;99.90
74513;DHT22;62992;52.052;8.550;2023-08-06T04:49:35;13.50;99.90
74513;DHT22;62992;52.052;8.550;2023-08-06T04:52:19;13.50;99.90
74513;DHT22;62992;52.052;8.550;2023-08-06T04:55:03;13.50;99.90
74513;DHT22;62992;52.052;8.550;2023-08-06T04:57:49;13.50;99.90
74513;DHT22;62992;52.052;8.550;2023-08-06T05:00:34;13.60;99.90
74513;DHT22;62992;52.052;8.550;2023-08-06T05:03:18;13.60;99.90
74513;DHT22;62992;52.052;8.550;2023-08-06T05:06:02;13.60;99.90
74513;DHT22;62992;52.052;8.550;2023-08-06T05:08:46;13.60;99.90
74513;DHT22;62992;52.052;8.550;2023-08-06T05:11:31;13.50;99.90
74513;DHT22;62992;52.052;8.550;2023-08-06T05:14:15;13.60;99.90
74513;DHT22;62992;52.052;8.550;2023-08-06T05:16:59;13.60;99.90
74513;DHT22;62992;52.052;8.550;2023-08-06T05:19:43;13.60;99.90
74513;DHT22;62992;52.052;8.550;2023-08-06T05:22:27;13.60;99.90
74513;DHT22;62992;52.052;8.550;2023-08-06T05:25:13;13.60;99.90
74513;DHT22;62992;52.052;8.550;2023-08-06T05:27:57;13.70;99.90
74513;DHT22;62992;52.052;8.550;2023-08-06T05:30:41;13.70;99.90
74513;DHT22;62992;52.052;8.550;2023-08-06T05:33:25;13.70;99.90
74513;DHT22;62992;52.052;8.550;2023-08-06T05:36:10;13.90;99.90
74513;DHT22;62992;52.052;8.550;2023-08-06T05:38:54;13.90;99.90
74513;DHT22;62992;52.052;8.550;2023-08-06T05:41:38;14.00;99.90
74513;DHT22;62992;52.052;8.550;2023-08-06T05:44:25;14.00;99.90
74513;DHT22;62992;52.052;8.550;2023-08-06T05:47:09;14.10;99.90
74513;DHT22;62992;52.052;8.550;2023-08-06T05:49:54;14.20;99.90
74513;DHT22;62992;52.052;8.550;2023-08-06T05:52:38;14.30;99.90
74513;DHT22;62992;52.052;8.550;2023-08-06T05:55:22;14.50;99.90
74513;DHT22;62992;52.052;8.550;2023-08-06T05:58:06;16.50;99.90
74513;DHT22;62992;52.052;8.550;2023-08-06T06:00:51;17.80;99.90
74513;DHT22;62992;52.052;8.550;2023-08-06T06:03:35;17.20;99.90
74513;DHT22;62992;52.052;8.550;2023-08-06T06:06:19;17.00;99.90
74513;DHT22;62992;52.052;8.550;2023-08-06T06:09:03;18.00;99.90
74513;DHT22;62992;52.052;8.550;2023-08-06T06:11:48;17.70;99.90
74513;DHT22;62992;52.052;8.550;2023-08-06T06:14:33;16.50;99.90
74513;DHT22;62992;52.052;8.550;2023-08-06T06:17:17;16.00;99.90
74513;DHT22;62992;52.052;8.550;2023-08-06T06:20:02;15.70;99.90
74513;DHT22;62992;52.052;8.550;2023-08-06T06:22:48;15.30;99.90
74513;DHT22;62992;52.052;8.550;2023-08-06T06:25:32;15.20;99.90
74513;DHT22;62992;52.052;8.550;2023-08-06T06:28:16;15.20;99.90
74513;DHT22;62992;52.052;8.550;2023-08-06T06:31:00;16.80;99.90
74513;DHT22;62992;52.052;8.550;2023-08-06T06:33:45;19.10;99.90
74513;DHT22;62992;52.052;8.550;2023-08-06T06:36:29;19.30;99.90
74513;DHT22;62992;52.052;8.550;2023-08-06T06:39:13;22.40;99.90
74513;DHT22;62992;52.052;8.550;2023-08-06T06:41:58;24.70;99.90
74513;DHT22;62992;52.052;8.550;2023-08-06T06:44:42;25.60;99.90
74513;DHT22;62992;52.052;8.550;2023-08-06T06:47:26;25.60;99.90
74513;DHT22;62992;52.052;8.550;2023-08-06T06:50:10;26.20;99.90
74513;DHT22;62992;52.052;8.550;2023-08-06T06:52:55;26.00;99.90
74513;DHT22;62992;52.052;8.550;2023-08-06T06:55:39;25.50;99.90
74513;DHT22;62992;52.052;8.550;2023-08-06T06:58:23;26.00;99.90
74513;DHT22;62992;52.052;8.550;2023-08-06T07:01:07;25.80;99.90
74513;DHT22;62992;52.052;8.550;2023-08-06T07:03:53;24.70;99.90
74513;DHT22;62992;52.052;8.550;2023-08-06T07:06:38;23.40;99.90
74513;DHT22;62992;52.052;8.550;2023-08-06T07:09:22;21.70;99.90
74513;DHT22;62992;52.052;8.550;2023-08-06T07:12:06;20.30;99.90
74513;DHT22;62992;52.052;8.550;2023-08-06T07:14:50;19.70;99.90
74513;DHT22;62992;52.052;8.550;2023-08-06T07:17:34;18.80;99.90
74513;DHT22;62992;52.052;8.550;2023-08-06T07:20:19;18.30;99.90
74513;DHT22;62992;52.052;8.550;2023-08-06T07:23:03;18.60;99.90
74513;DHT22;62992;52.052;8.550;2023-08-06T07:25:47;20.10;99.90
74513;DHT22;62992;52.052;8.550;2023-08-06T07:28:31;20.00;99.90
74513;DHT22;62992;52.052;8.550;2023-08-06T07:31:15;19.70;99.90
74513;DHT22;62992;52.052;8.550;2023-08-06T07:33:59;21.00;99.90
74513;DHT22;62992;52.052;8.550;2023-08-06T07:36:44;22.00;99.90
74513;DHT22;62992;52.052;8.550;2023-08-06T07:39:29;22.50;99.90
74513;DHT22;62992;52.052;8.550;2023-08-06T07:42:14;24.10;99.90
74513;DHT22;62992;52.052;8.550;2023-08-06T07:44:58;24.40;99.90
74513;DHT22;62992;52.052;8.550;2023-08-06T07:47:43;22.70;99.90
74513;DHT22;62992;52.052;8.550;2023-08-06T07:50:27;21.30;99.90
74513;DHT22;62992;52.052;8.550;2023-08-06T07:53:11;20.80;99.90
74513;DHT22;62992;52.052;8.550;2023-08-06T07:55:56;20.90;99.90
74513;DHT22;62992;52.052;8.550;2023-08-06T07:58:40;21.20;99.90
74513;DHT22;62992;52.052;8.550;2023-08-06T08:01:25;20.50;99.90
74513;DHT22;62992;52.052;8.550;2023-08-06T08:04:09;21.10;99.90
74513;DHT22;62992;52.052;8.550;2023-08-06T08:06:53;21.60;99.90
74513;DHT22;62992;52.052;8.550;2023-08-06T08:09:37;22.30;99.90
74513;DHT22;62992;52.052;8.550;2023-08-06T08:12:22;23.00;99.90
74513;DHT22;62992;52.052;8.550;2023-08-06T08:15:06;24.20;99.90
74513;DHT22;62992;52.052;8.550;2023-08-06T08:17:50;23.70;99.90
74513;DHT22;62992;52.052;8.550;2023-08-06T08:20:35;21.90;99.90
74513;DHT22;62992;52.052;8.550;2023-08-06T08:23:19;20.50;99.90
74513;DHT22;62992;52.052;8.550;2023-08-06T08:26:03;19.70;99.90
74513;DHT22;62992;52.052;8.550;2023-08-06T08:28:48;19.50;99.90
74513;DHT22;62992;52.052;8.550;2023-08-06T08:31:32;19.30;99.90
74513;DHT22;62992;52.052;8.550;2023-08-06T08:34:22;19.10;99.90
74513;DHT22;62992;52.052;8.550;2023-08-06T08:37:06;18.90;99.90
74513;DHT22;62992;52.052;8.550;2023-08-06T08:39:50;18.80;99.90
74513;DHT22;62992;52.052;8.550;2023-08-06T08:42:36;19.10;99.90
74513;DHT22;62992;52.052;8.550;2023-08-06T08:45:20;19.60;99.90
74513;DHT22;62992;52.052;8.550;2023-08-06T08:48:05;19.90;99.90
74513;DHT22;62992;52.052;8.550;2023-08-06T08:50:50;21.70;99.90
74513;DHT22;62992;52.052;8.550;2023-08-06T08:53:34;21.30;99.90
74513;DHT22;62992;52.052;8.550;2023-08-06T08:56:19;20.40;99.90
74513;DHT22;62992;52.052;8.550;2023-08-06T08:59:03;19.80;99.90
74513;DHT22;62992;52.052;8.550;2023-08-06T09:01:47;19.60;99.90
74513;DHT22;62992;52.052;8.550;2023-08-06T09:04:34;19.30;99.90
74513;DHT22;62992;52.052;8.550;2023-08-06T09:07:20;19.00;99.90
74513;DHT22;62992;52.052;8.550;2023-08-06T09:10:05;19.20;99.90
74513;DHT22;62992;52.052;8.550;2023-08-06T09:12:51;20.30;99.90
74513;DHT22;62992;52.052;8.550;2023-08-06T09:15:35;21.30;99.90
74513;DHT22;62992;52.052;8.550;2023-08-06T09:18:25;21.10;99.90
74513;DHT22;62992;52.052;8.550;2023-08-06T09:21:13;20.20;99.90
74513;DHT22;62992;52.052;8.550;2023-08-06T09:23:59;19.80;99.90
74513;DHT22;62992;52.052;8.550;2023-08-06T09:26:43;19.60;99.90
74513;DHT22;62992;52.052;8.550;2023-08-06T09:29:28;19.50;99.90
74513;DHT22;62992;52.052;8.550;2023-08-06T09:32:15;19.60;99.90
74513;DHT22;62992;52.052;8.550;2023-08-06T09:34:59;19.70;99.90
74513;DHT22;62992;52.052;8.550;2023-08-06T09:37:44;20.50;99.90
74513;DHT22;62992;52.052;8.550;2023-08-06T09:40:29;22.60;99.90
74513;DHT22;62992;52.052;8.550;2023-08-06T09:43:14;23.20;99.90
74513;DHT22;62992;52.052;8.550;2023-08-06T09:45:58;23.80;99.90
74513;DHT22;62992;52.052;8.550;2023-08-06T09:48:48;24.40;99.90
74513;DHT22;62992;52.052;8.550;2023-08-06T09:51:34;24.50;99.90
74513;DHT22;62992;52.052;8.550;2023-08-06T09:54:18;24.90;99.90
74513;DHT22;62992;52.052;8.550;2023-08-06T09:57:02;25.40;99.90
74513;DHT22;62992;52.052;8.550;2023-08-06T09:59:47;25.30;99.90
74513;DHT22;62992;52.052;8.550;2023-08-06T10:02:31;25.20;99.90
74513;DHT22;62992;52.052;8.550;2023-08-06T10:05:16;24.90;99.90
74513;DHT22;62992;52.052;8.550;2023-08-06T10:08:00;24.70;99.90
74513;DHT22;62992;52.052;8.550;2023-08-06T10:10:45;25.00;99.90
74513;DHT22;62992;52.052;8.550;2023-08-06T10:13:30;25.10;99.90
74513;DHT22;62992;52.052;8.550;2023-08-06T10:16:14;25.00;99.90
74513;DHT22;62992;52.052;8.550;2023-08-06T10:18:59;25.80;99.90
74513;DHT22;62992;52.052;8.550;2023-08-06T10:24:46;22.70;99.90
74513;DHT22;62992;52.052;8.550;2023-08-06T10:30:28;22.10;99.90
74513;DHT22;62992;52.052;8.550;2023-08-06T10:33:12;21.60;99.90
74513;DHT22;62992;52.052;8.550;2023-08-06T10:36:00;22.00;99.90
74513;DHT22;62992;52.052;8.550;2023-08-06T10:38:45;22.90;99.90
74513;DHT22;62992;52.052;8.550;2023-08-06T10:41:30;21.90;99.90
74513;DHT22;62992;52.052;8.550;2023-08-06T10:44:15;21.30;99.90
74513;DHT22;62992;52.052;8.550;2023-08-06T10:47:16;20.90;99.90
74513;DHT22;62992;52.052;8.550;2023-08-06T10:50:02;20.80;99.90
74513;DHT22;62992;52.052;8.550;2023-08-06T10:52:47;21.20;99.90
74513;DHT22;62992;52.052;8.550;2023-08-06T10:55:31;20.70;99.90
74513;DHT22;62992;52.052;8.550;2023-08-06T10:58:16;20.50;99.90
74513;DHT22;62992;52.052;8.550;2023-08-06T11:01:00;20.60;99.90
74513;DHT22;62992;52.052;8.550;2023-08-06T11:03:44;20.80;99.90
74513;DHT22;62992;52.052;8.550;2023-08-06T11:06:28;20.80;99.90
74513;DHT22;62992;52.052;8.550;2023-08-06T11:09:13;20.80;99.90
74513;DHT22;62992;52.052;8.550;2023-08-06T11:11:57;20.60;99.90
74513;DHT22;62992;52.052;8.550;2023-08-06T11:14:41;20.50;99.90
74513;DHT22;62992;52.052;8.550;2023-08-06T11:17:27;20.40;99.90
74513;DHT22;62992;52.052;8.550;2023-08-06T11:20:11;20.30;99.90
74513;DHT22;62992;52.052;8.550;2023-08-06T11:22:56;20.30;99.90
74513;DHT22;62992;52.052;8.550;2023-08-06T11:25:46;20.10;99.90
74513;DHT22;62992;52.052;8.550;2023-08-06T11:28:30;20.10;99.90
74513;DHT22;62992;52.052;8.550;2023-08-06T11:31:18;20.00;99.90
74513;DHT22;62992;52.052;8.550;2023-08-06T11:34:02;20.20;99.90
74513;DHT22;62992;52.052;8.550;2023-08-06T11:36:47;20.20;99.90
74513;DHT22;62992;52.052;8.550;2023-08-06T11:39:34;20.20;99.90
74513;DHT22;62992;52.052;8.550;2023-08-06T11:42:19;20.20;99.90
74513;DHT22;62992;52.052;8.550;2023-08-06T11:45:04;20.20;99.90
74513;DHT22;62992;52.052;8.550;2023-08-06T11:47:51;20.20;99.90
74513;DHT22;62992;52.052;8.550;2023-08-06T11:50:37;20.10;99.90
74513;DHT22;62992;52.052;8.550;2023-08-06T11:53:27;20.10;99.90
74513;DHT22;62992;52.052;8.550;2023-08-06T11:56:11;20.10;99.90
74513;DHT22;62992;52.052;8.550;2023-08-06T11:58:55;20.10;99.90
74513;DHT22;62992;52.052;8.550;2023-08-06T12:01:39;20.00;99.90
74513;DHT22;62992;52.052;8.550;2023-08-06T12:04:23;20.20;99.90
74513;DHT22;62992;52.052;8.550;2023-08-06T12:07:08;20.20;99.90
74513;DHT22;62992;52.052;8.550;2023-08-06T12:09:52;20.20;99.90
74513;DHT22;62992;52.052;8.550;2023-08-06T12:12:36;20.20;99.90
74513;DHT22;62992;52.052;8.550;2023-08-06T12:15:21;20.20;99.90
74513;DHT22;62992;52.052;8.550;2023-08-06T12:18:06;20.30;99.90
74513;DHT22;62992;52.052;8.550;2023-08-06T12:20:50;20.30;99.90
74513;DHT22;62992;52.052;8.550;2023-08-06T12:23:34;20.30;99.90
74513;DHT22;62992;52.052;8.550;2023-08-06T12:26:18;20.50;99.90
74513;DHT22;62992;52.052;8.550;2023-08-06T12:29:02;20.70;99.90
74513;DHT22;62992;52.052;8.550;2023-08-06T12:31:47;20.60;99.90
74513;DHT22;62992;52.052;8.550;2023-08-06T12:34:31;20.60;99.90
74513;DHT22;62992;52.052;8.550;2023-08-06T12:37:15;20.60;99.90
74513;DHT22;62992;52.052;8.550;2023-08-06T12:40:00;20.60;99.90
74513;DHT22;62992;52.052;8.550;2023-08-06T12:42:44;21.00;99.90
74513;DHT22;62992;52.052;8.550;2023-08-06T12:45:28;21.20;99.90
74513;DHT22;62992;52.052;8.550;2023-08-06T12:48:12;21.20;99.90
74513;DHT22;62992;52.052;8.550;2023-08-06T12:50:57;21.50;99.90
74513;DHT22;62992;52.052;8.550;2023-08-06T12:53:41;22.10;99.90
74513;DHT22;62992;52.052;8.550;2023-08-06T12:56:25;22.10;99.90
74513;DHT22;62992;52.052;8.550;2023-08-06T12:59:10;22.20;99.90
74513;DHT22;62992;52.052;8.550;2023-08-06T13:01:54;22.10;99.90
74513;DHT22;62992;52.052;8.550;2023-08-06T13:04:38;21.70;99.90
74513;DHT22;62992;52.052;8.550;2023-08-06T13:07:23;21.40;99.90
74513;DHT22;62992;52.052;8.550;2023-08-06T13:10:08;21.50;99.90
74513;DHT22;62992;52.052;8.550;2023-08-06T13:12:52;21.30;99.90
74513;DHT22;62992;52.052;8.550;2023-08-06T13:15:36;21.20;99.90
74513;DHT22;62992;52.052;8.550;2023-08-06T13:18:21;21.30;99.90
74513;DHT22;62992;52.052;8.550;2023-08-06T13:21:05;21.30;99.90
74513;DHT22;62992;52.052;8.550;2023-08-06T13:23:49;21.10;99.90
74513;DHT22;62992;52.052;8.550;2023-08-06T13:26:34;20.90;99.90
74513;DHT22;62992;52.052;8.550;2023-08-06T13:29:18;20.70;99.90
74513;DHT22;62992;52.052;8.550;2023-08-06T13:32:02;20.40;99.90
74513;DHT22;62992;52.052;8.550;2023-08-06T13:34:46;20.20;99.90
74513;DHT22;62992;52.052;8.550;2023-08-06T13:37:30;20.20;99.90
74513;DHT22;62992;52.052;8.550;2023-08-06T13:40:15;20.00;99.90
74513;DHT22;62992;52.052;8.550;2023-08-06T13:42:59;19.90;99.90
74513;DHT22;62992;52.052;8.550;2023-08-06T13:45:42;19.60;99.90
74513;DHT22;62992;52.052;8.550;2023-08-06T13:48:27;19.50;99.90
74513;DHT22;62992;52.052;8.550;2023-08-06T13:51:11;19.40;99.90
74513;DHT22;62992;52.052;8.550;2023-08-06T13:53:55;19.40;99.90
74513;DHT22;62992;52.052;8.550;2023-08-06T13:56:41;19.20;99.90
74513;DHT22;62992;52.052;8.550;2023-08-06T13:59:25;19.20;99.90
74513;DHT22;62992;52.052;8.550;2023-08-06T14:02:10;19.00;99.90
74513;DHT22;62992;52.052;8.550;2023-08-06T14:04:54;19.00;99.90
74513;DHT22;62992;52.052;8.550;2023-08-06T14:07:38;18.90;99.90
74513;DHT22;62992;52.052;8.550;2023-08-06T14:10:22;18.80;99.90
74513;DHT22;62992;52.052;8.550;2023-08-06T14:13:07;18.80;99.90
74513;DHT22;62992;52.052;8.550;2023-08-06T14:15:51;18.70;99.90
74513;DHT22;62992;52.052;8.550;2023-08-06T14:18:35;18.60;99.90
74513;DHT22;62992;52.052;8.550;2023-08-06T14:21:21;18.50;99.90
74513;DHT22;62992;52.052;8.550;2023-08-06T14:24:06;18.50;99.90
74513;DHT22;62992;52.052;8.550;2023-08-06T14:26:50;18.40;99.90
74513;DHT22;62992;52.052;8.550;2023-08-06T14:29:34;18.30;99.90
74513;DHT22;62992;52.052;8.550;2023-08-06T14:32:18;18.10;99.90
74513;DHT22;62992;52.052;8.550;2023-08-06T14:35:03;18.00;99.90
74513;DHT22;62992;52.052;8.550;2023-08-06T14:37:47;17.90;99.90
74513;DHT22;62992;52.052;8.550;2023-08-06T14:40:31;17.90;99.90
74513;DHT22;62992;52.052;8.550;2023-08-06T14:43:21;17.80;99.90
74513;DHT22;62992;52.052;8.550;2023-08-06T14:46:05;17.80;99.90
74513;DHT22;62992;52.052;8.550;2023-08-06T14:48:49;17.80;99.90
74513;DHT22;62992;52.052;8.550;2023-08-06T14:51:33;17.70;99.90
74513;DHT22;62992;52.052;8.550;2023-08-06T14:54:18;17.80;99.90
74513;DHT22;62992;52.052;8.550;2023-08-06T14:57:02;17.80;99.90
74513;DHT22;62992;52.052;8.550;2023-08-06T14:59:46;17.70;99.90
74513;DHT22;62992;52.052;8.550;2023-08-06T15:02:30;17.60;99.90
74513;DHT22;62992;52.052;8.550;2023-08-06T15:05:14;17.60;99.90
74513;DHT22;62992;52.052;8.550;2023-08-06T15:07:59;17.60;99.90
74513;DHT22;62992;52.052;8.550;2023-08-06T15:10:49;17.60;99.90
74513;DHT22;62992;52.052;8.550;2023-08-06T15:13:33;17.70;99.90
74513;DHT22;62992;52.052;8.550;2023-08-06T15:16:17;17.70;99.90
74513;DHT22;62992;52.052;8.550;2023-08-06T15:19:01;17.70;99.90
74513;DHT22;62992;52.052;8.550;2023-08-06T15:21:46;17.60;99.90
74513;DHT22;62992;52.052;8.550;2023-08-06T15:24:30;17.50;99.90
74513;DHT22;62992;52.052;8.550;2023-08-06T15:27:14;17.50;99.90
74513;DHT22;62992;52.052;8.550;2023-08-06T15:29:59;17.50;99.90
74513;DHT22;62992;52.052;8.550;2023-08-06T15:32:43;17.40;99.90
74513;DHT22;62992;52.052;8.550;2023-08-06T15:35:28;17.20;99.90
74513;DHT22;62992;52.052;8.550;2023-08-06T15:38:12;17.20;99.90
74513;DHT22;62992;52.052;8.550;2023-08-06T15:40:56;16.90;99.90
74513;DHT22;62992;52.052;8.550;2023-08-06T15:43:41;16.90;99.90
74513;DHT22;62992;52.052;8.550;2023-08-06T15:46:25;16.90;99.90
74513;DHT22;62992;52.052;8.550;2023-08-06T15:49:09;16.80;99.90
74513;DHT22;62992;52.052;8.550;2023-08-06T15:51:54;16.90;99.90
74513;DHT22;62992;52.052;8.550;2023-08-06T15:54:38;16.80;99.90
74513;DHT22;62992;52.052;8.550;2023-08-06T15:57:22;16.90;99.90
74513;DHT22;62992;52.052;8.550;2023-08-06T16:00:07;16.80;99.90
74513;DHT22;62992;52.052;8.550;2023-08-06T16:02:51;16.80;99.90
74513;DHT22;62992;52.052;8.550;2023-08-06T16:05:35;16.60;99.90
74513;DHT22;62992;52.052;8.550;2023-08-06T16:08:20;16.70;99.90
74513;DHT22;62992;52.052;8.550;2023-08-06T16:11:04;16.60;99.90
74513;DHT22;62992;52.052;8.550;2023-08-06T16:13:51;16.70;99.90
74513;DHT22;62992;52.052;8.550;2023-08-06T16:16:35;16.80;99.90
74513;DHT22;62992;52.052;8.550;2023-08-06T16:19:19;16.60;99.90
74513;DHT22;62992;52.052;8.550;2023-08-06T16:22:04;16.60;99.90
74513;DHT22;62992;52.052;8.550;2023-08-06T16:24:50;16.50;99.90
74513;DHT22;62992;52.052;8.550;2023-08-06T16:27:34;16.40;99.90
74513;DHT22;62992;52.052;8.550;2023-08-06T16:30:18;16.30;99.90
74513;DHT22;62992;52.052;8.550;2023-08-06T16:33:02;16.40;99.90
74513;DHT22;62992;52.052;8.550;2023-08-06T16:35:46;16.20;99.90
74513;DHT22;62992;52.052;8.550;2023-08-06T16:38:31;16.30;99.90
74513;DHT22;62992;52.052;8.550;2023-08-06T16:41:15;16.40;99.90
74513;DHT22;62992;52.052;8.550;2023-08-06T16:43:59;16.40;99.90
74513;DHT22;62992;52.052;8.550;2023-08-06T16:46:44;16.50;99.90
74513;DHT22;62992;52.052;8.550;2023-08-06T16:49:28;16.50;99.90
74513;DHT22;62992;52.052;8.550;2023-08-06T16:52:12;16.50;99.90
74513;DHT22;62992;52.052;8.550;2023-08-06T16:54:56;16.50;99.90
74513;DHT22;62992;52.052;8.550;2023-08-06T16:57:40;16.50;99.90
74513;DHT22;62992;52.052;8.550;2023-08-06T17:00:25;16.50;99.90
74513;DHT22;62992;52.052;8.550;2023-08-06T17:03:11;16.30;99.90
74513;DHT22;62992;52.052;8.550;2023-08-06T17:05:55;16.20;99.90
74513;DHT22;62992;52.052;8.550;2023-08-06T17:08:39;16.10;99.90
74513;DHT22;62992;52.052;8.550;2023-08-06T17:11:23;16.10;99.90
74513;DHT22;62992;52.052;8.550;2023-08-06T17:14:08;16.10;99.90
74513;DHT22;62992;52.052;8.550;2023-08-06T17:16:52;16.00;99.90
74513;DHT22;62992;52.052;8.550;2023-08-06T17:19:37;15.90;99.90
74513;DHT22;62992;52.052;8.550;2023-08-06T17:22:21;15.90;99.90
74513;DHT22;62992;52.052;8.550;2023-08-06T17:25:05;15.80;99.90
74513;DHT22;62992;52.052;8.550;2023-08-06T17:27:49;15.70;99.90
74513;DHT22;62992;52.052;8.550;2023-08-06T17:30:33;15.60;99.90